createdAt,value
2017-10-06T00:02:01.882Z,99191.13
2017-10-06T00:04:28.110Z,99189.20
2017-10-06T00:06:54.381Z,99190.69
2017-10-06T00:09:20.629Z,99189.42
2017-10-06T00:11:46.870Z,99181.07
2017-10-06T00:14:13.125Z,99179.09
2017-10-06T00:16:39.349Z,99167.45
2017-10-06T00:19:05.616Z,99165.82
2017-10-06T00:21:31.865Z,99159.98
2017-10-06T00:23:58.097Z,99157.43
2017-10-06T00:26:24.325Z,99156.41
2017-10-06T00:28:50.558Z,99148.82
2017-10-06T00:31:16.801Z,99146.20
2017-10-06T00:33:43.053Z,99142.95
2017-10-06T00:36:09.300Z,99141.14
2017-10-06T00:38:35.529Z,99137.20
2017-10-06T00:41:01.758Z,99135.31
2017-10-06T00:43:28.048Z,99140.17
2017-10-06T00:45:54.406Z,99141.02
2017-10-06T00:48:20.647Z,99131.66
2017-10-06T00:50:46.901Z,99136.48
2017-10-06T00:53:13.125Z,99131.66
2017-10-06T00:55:39.365Z,99128.16
2017-10-06T00:58:05.779Z,99124.45
2017-10-06T01:00:32.002Z,99119.62
2017-10-06T01:02:58.210Z,99109.55
2017-10-06T01:05:24.417Z,99107.38
2017-10-06T01:07:50.698Z,99105.39
2017-10-06T01:10:16.938Z,99113.83
2017-10-06T01:12:43.159Z,99110.08
2017-10-06T01:15:09.560Z,99107.81
2017-10-06T01:17:35.795Z,99108.91
2017-10-06T01:20:02.037Z,99104.35
2017-10-06T01:22:28.273Z,99099.59
2017-10-06T01:24:54.486Z,99101.55
2017-10-06T01:27:20.701Z,99092.38
2017-10-06T01:29:46.927Z,99097.44
2017-10-06T01:32:13.203Z,99105.54
2017-10-06T01:34:39.451Z,99098.30
2017-10-06T01:37:05.706Z,99088.82
2017-10-06T01:39:31.958Z,99090.80
2017-10-06T01:41:58.188Z,99083.97
2017-10-06T01:44:24.428Z,99083.58
2017-10-06T01:46:50.659Z,99087.17
2017-10-06T01:49:16.864Z,99076.38
2017-10-06T01:51:43.079Z,99089.12
2017-10-06T01:54:09.305Z,99086.18
2017-10-06T01:56:35.563Z,99078.27
2017-10-06T01:59:01.792Z,99087.63
2017-10-06T02:01:28.170Z,99088.41
2017-10-06T02:03:54.414Z,99084.41
2017-10-06T02:06:20.650Z,99083.79
2017-10-06T02:08:46.884Z,99084.20
2017-10-06T02:11:13.113Z,99083.78
2017-10-06T02:13:39.340Z,99083.30
2017-10-06T02:16:05.578Z,99080.78
2017-10-06T02:18:31.803Z,99075.16
2017-10-06T02:20:58.056Z,99073.31
2017-10-06T02:23:24.276Z,99080.20
2017-10-06T02:25:50.538Z,99073.09
2017-10-06T02:28:16.777Z,99074.08
2017-10-06T02:30:43.067Z,99079.66
2017-10-06T02:33:09.503Z,99078.09
2017-10-06T02:35:35.741Z,99067.34
2017-10-06T02:38:01.965Z,99079.17
2017-10-06T02:40:28.207Z,99075.27
2017-10-06T02:42:54.428Z,99079.48
2017-10-06T02:45:20.878Z,99073.56
2017-10-06T02:47:47.107Z,99079.45
2017-10-06T02:50:13.328Z,99066.38
2017-10-06T02:52:39.563Z,99075.19
2017-10-06T02:55:05.792Z,99085.59
2017-10-06T02:57:32.062Z,99080.86
2017-10-06T02:59:58.288Z,99072.70
2017-10-06T03:02:24.519Z,99080.36
2017-10-06T03:04:50.743Z,99076.75
2017-10-06T03:07:16.977Z,99085.86
2017-10-06T03:09:43.210Z,99092.35
2017-10-06T03:12:09.433Z,99089.32
2017-10-06T03:14:35.660Z,99083.22
2017-10-06T03:17:01.901Z,99082.84
2017-10-06T03:19:28.112Z,99084.59
2017-10-06T03:21:54.496Z,99082.99
2017-10-06T03:24:20.734Z,99080.53
2017-10-06T03:26:46.969Z,99087.63
2017-10-06T03:29:13.210Z,99088.98
2017-10-06T03:31:39.427Z,99086.00
2017-10-06T03:34:05.694Z,99087.92
2017-10-06T03:36:31.911Z,99094.14
2017-10-06T03:38:58.134Z,99095.47
2017-10-06T03:41:24.365Z,99103.78
2017-10-06T03:43:50.591Z,99099.83
2017-10-06T03:46:16.826Z,99105.27
2017-10-06T03:48:43.062Z,99106.17
2017-10-06T03:51:09.293Z,99113.00
2017-10-06T03:53:35.659Z,99111.47
2017-10-06T03:56:01.892Z,99107.55
2017-10-06T03:58:28.183Z,99110.45
2017-10-06T04:00:54.411Z,99107.56
2017-10-06T04:03:20.630Z,99111.42
2017-10-06T04:05:46.843Z,99115.03
2017-10-06T04:08:13.075Z,99112.24
2017-10-06T04:10:39.344Z,99106.98
2017-10-06T04:13:05.681Z,99110.43
2017-10-06T04:15:31.904Z,99113.12
2017-10-06T04:17:58.161Z,99110.08
2017-10-06T04:20:24.387Z,99113.21
2017-10-06T04:22:50.631Z,99113.48
2017-10-06T04:25:16.874Z,99114.78
2017-10-06T04:27:43.089Z,99112.07
2017-10-06T04:30:09.335Z,99119.05
2017-10-06T04:32:35.579Z,99114.67
2017-10-06T04:35:01.860Z,99114.02
2017-10-06T04:37:28.115Z,99114.20
2017-10-06T04:39:54.363Z,99125.03
2017-10-06T04:42:20.610Z,99124.22
2017-10-06T04:44:46.842Z,99120.27
2017-10-06T04:47:13.117Z,99125.09
2017-10-06T04:49:39.336Z,99126.54
2017-10-06T04:52:05.766Z,99123.22
2017-10-06T04:54:32.062Z,99120.41
2017-10-06T04:56:58.303Z,99123.35
2017-10-06T04:59:24.552Z,99115.03
2017-10-06T05:01:50.791Z,99123.02
2017-10-06T05:04:17.020Z,99121.56
2017-10-06T05:06:43.338Z,99115.44
2017-10-06T05:09:09.576Z,99119.09
2017-10-06T05:11:35.816Z,99121.02
2017-10-06T05:14:02.111Z,99122.14
2017-10-06T05:16:28.343Z,99123.77
2017-10-06T05:18:54.627Z,99123.90
2017-10-06T05:21:20.873Z,99123.92
2017-10-06T05:23:47.143Z,99115.69
2017-10-06T05:26:13.380Z,99132.97
2017-10-06T05:28:39.613Z,99131.62
2017-10-06T05:31:05.887Z,99129.99
2017-10-06T05:33:32.125Z,99133.64
2017-10-06T05:35:58.366Z,99127.62
2017-10-06T05:38:24.604Z,99125.94
2017-10-06T05:40:50.871Z,99120.78
2017-10-06T05:43:17.177Z,99124.63
2017-10-06T05:45:43.514Z,99121.53
2017-10-06T05:48:09.756Z,99118.80
2017-10-06T05:50:35.979Z,99118.07
2017-10-06T05:53:02.226Z,99127.50
2017-10-06T05:55:28.455Z,99115.36
2017-10-06T05:57:54.695Z,99111.06
2017-10-06T06:00:20.921Z,99112.20
2017-10-06T06:02:47.211Z,99114.09
2017-10-06T06:05:13.446Z,99118.36
2017-10-06T06:07:39.715Z,99113.59
2017-10-06T06:10:05.950Z,99109.52
2017-10-06T06:12:32.190Z,99118.41
2017-10-06T06:14:58.422Z,99119.13
2017-10-06T06:17:24.787Z,99110.52
2017-10-06T06:19:51.029Z,99117.01
2017-10-06T06:22:17.274Z,99123.63
2017-10-06T06:24:43.509Z,99113.58
2017-10-06T06:27:09.752Z,99112.64
2017-10-06T06:29:36.016Z,99113.12
2017-10-06T06:32:02.371Z,99115.87
2017-10-06T06:34:28.612Z,99105.39
2017-10-06T06:36:54.847Z,99107.76
2017-10-06T06:39:21.122Z,99104.62
2017-10-06T06:41:47.374Z,99096.81
2017-10-06T06:44:13.603Z,99094.49
2017-10-06T06:46:39.855Z,99097.52
2017-10-06T06:49:06.102Z,99100.39
2017-10-06T06:51:32.386Z,99097.28
2017-10-06T06:53:58.641Z,99090.00
2017-10-06T06:56:24.892Z,99087.31
2017-10-06T06:58:51.167Z,99081.30
2017-10-06T07:01:17.425Z,99080.41
2017-10-06T07:03:43.718Z,99070.73
2017-10-06T07:06:09.950Z,99074.98
2017-10-06T07:08:36.213Z,99068.94
2017-10-06T07:11:02.454Z,99066.45
2017-10-06T07:13:28.690Z,99060.16
2017-10-06T07:15:54.941Z,99056.48
2017-10-06T07:18:21.205Z,99056.59
2017-10-06T07:20:47.420Z,99053.80
2017-10-06T07:23:13.676Z,99057.69
2017-10-06T07:25:39.896Z,99049.70
2017-10-06T07:28:06.217Z,99052.35
2017-10-06T07:30:32.449Z,99053.63
2017-10-06T07:32:58.684Z,99048.61
2017-10-06T07:35:24.930Z,99044.13
2017-10-06T07:37:51.168Z,99037.24
2017-10-06T07:40:17.423Z,99030.22
2017-10-06T07:42:43.677Z,99028.62
2017-10-06T07:45:09.912Z,99025.42
2017-10-06T07:47:36.182Z,99023.42
2017-10-06T07:50:02.420Z,99020.95
2017-10-06T07:52:28.708Z,99018.64
2017-10-06T07:54:54.953Z,99013.47
2017-10-06T07:57:21.196Z,99016.91
2017-10-06T07:59:47.459Z,99009.52
2017-10-06T08:02:13.686Z,99004.27
2017-10-06T08:04:39.941Z,98998.40
2017-10-06T08:07:06.191Z,98997.68
2017-10-06T08:09:32.442Z,98994.05
2017-10-06T08:11:58.686Z,98994.07
2017-10-06T08:14:24.926Z,98994.55
2017-10-06T08:16:51.230Z,98995.73
2017-10-06T08:19:17.491Z,98996.70
2017-10-06T08:21:43.726Z,98990.87
2017-10-06T08:24:09.973Z,98986.17
2017-10-06T08:26:36.230Z,98981.41
2017-10-06T08:29:02.462Z,98975.03
2017-10-06T08:31:28.751Z,98976.42
2017-10-06T08:33:55.004Z,98973.08
2017-10-06T08:36:21.276Z,98971.41
2017-10-06T08:38:47.516Z,98969.22
2017-10-06T08:41:13.797Z,98967.48
2017-10-06T08:43:40.069Z,98966.98
2017-10-06T08:46:06.275Z,98969.42
2017-10-06T08:48:32.522Z,98971.45
2017-10-06T08:50:58.812Z,98973.64
2017-10-06T08:53:25.184Z,98964.92
2017-10-06T08:55:51.491Z,98962.91
2017-10-06T08:58:17.742Z,98968.04
2017-10-06T09:00:44.015Z,98977.13
2017-10-06T09:03:10.255Z,98968.68
2017-10-06T09:05:36.488Z,98973.25
2017-10-06T09:08:02.745Z,98961.96
2017-10-06T09:10:28.977Z,98960.94
2017-10-06T09:12:55.221Z,98954.68
2017-10-06T09:15:21.535Z,98957.29
2017-10-06T09:17:47.765Z,98949.69
2017-10-06T09:20:14.003Z,98947.77
2017-10-06T09:22:40.290Z,98948.13
2017-10-06T09:25:06.643Z,98957.15
2017-10-06T09:27:32.868Z,98954.70
2017-10-06T09:29:59.106Z,98950.81
2017-10-06T09:32:25.353Z,98954.83
2017-10-06T09:34:51.590Z,98942.58
2017-10-06T09:37:17.883Z,98945.58
2017-10-06T09:39:44.227Z,98948.59
2017-10-06T09:42:10.650Z,98939.45
2017-10-06T09:44:36.880Z,98937.66
2017-10-06T09:47:03.120Z,98936.78
2017-10-06T09:49:29.404Z,98929.27
2017-10-06T09:51:55.635Z,98936.45
2017-10-06T09:54:21.863Z,98929.89
2017-10-06T09:56:48.106Z,98925.52
2017-10-06T09:59:14.352Z,98921.26
2017-10-06T10:01:40.576Z,98922.98
2017-10-06T10:04:06.848Z,98919.92
2017-10-06T10:06:33.089Z,98915.08
2017-10-06T10:08:59.321Z,98918.48
2017-10-06T10:11:25.556Z,98920.16
2017-10-06T10:13:51.778Z,98920.12
2017-10-06T10:16:18.014Z,98912.94
2017-10-06T10:18:44.268Z,98917.80
2017-10-06T10:21:10.509Z,98914.02
2017-10-06T10:23:36.741Z,98911.95
2017-10-06T10:26:03.031Z,98909.00
2017-10-06T10:28:29.277Z,98905.12
2017-10-06T10:30:55.516Z,98911.27
2017-10-06T10:33:21.799Z,98905.70
2017-10-06T10:35:48.051Z,98909.10
2017-10-06T10:38:14.308Z,98909.56
2017-10-06T10:40:40.593Z,98901.22
2017-10-06T10:43:06.828Z,98899.86
2017-10-06T10:45:33.076Z,98894.70
2017-10-06T10:47:59.314Z,98900.20
2017-10-06T10:50:25.539Z,98897.61
2017-10-06T10:52:51.775Z,98908.58
2017-10-06T10:55:18.003Z,98902.41
2017-10-06T10:57:44.224Z,98899.38
2017-10-06T11:00:10.449Z,98898.56
2017-10-06T11:02:36.672Z,98886.30
2017-10-06T11:05:02.919Z,98883.92
2017-10-06T11:07:29.140Z,98892.33
2017-10-06T11:09:55.405Z,98893.91
2017-10-06T11:12:21.647Z,98892.18
2017-10-06T11:14:47.866Z,98880.06
2017-10-06T11:17:14.109Z,98878.38
2017-10-06T11:19:40.365Z,98877.02
2017-10-06T11:22:06.591Z,98878.61
2017-10-06T11:24:32.825Z,98877.77
2017-10-06T11:26:59.064Z,98885.91
2017-10-06T11:29:25.358Z,98877.78
2017-10-06T11:31:51.584Z,98873.64
2017-10-06T11:34:17.860Z,98878.23
2017-10-06T11:36:44.080Z,98870.70
2017-10-06T11:39:10.304Z,98869.82
2017-10-06T11:41:36.516Z,98872.73
2017-10-06T11:44:02.743Z,98867.08
2017-10-06T11:46:29.031Z,98872.92
2017-10-06T11:48:55.275Z,98868.42
2017-10-06T11:51:21.579Z,98870.28
2017-10-06T11:53:47.817Z,98879.96
2017-10-06T11:56:14.043Z,98881.84
2017-10-06T11:58:40.304Z,98871.11
2017-10-06T12:01:06.534Z,98865.27
2017-10-06T12:03:32.759Z,98869.05
2017-10-06T12:05:59.008Z,98872.95
2017-10-06T12:08:25.232Z,98868.39
2017-10-06T12:10:51.458Z,98871.66
2017-10-06T12:13:17.691Z,98856.49
2017-10-06T12:15:43.930Z,98861.61
2017-10-06T12:18:10.227Z,98868.22
2017-10-06T12:20:36.484Z,98870.58
2017-10-06T12:23:02.711Z,98869.72
2017-10-06T12:25:28.935Z,98868.01
2017-10-06T12:27:55.182Z,98864.56
2017-10-06T12:30:21.470Z,98858.53
2017-10-06T12:32:47.688Z,98853.20
2017-10-06T12:35:13.931Z,98858.16
2017-10-06T12:37:40.166Z,98856.95
2017-10-06T12:40:06.390Z,98865.83
2017-10-06T12:42:32.673Z,98868.41
2017-10-06T12:44:58.898Z,98874.62
2017-10-06T12:47:25.164Z,98874.58
2017-10-06T12:49:51.513Z,98874.38
2017-10-06T12:52:17.791Z,98865.05
2017-10-06T12:54:44.017Z,98871.70
2017-10-06T12:57:10.246Z,98868.55
2017-10-06T12:59:36.473Z,98880.33
2017-10-06T13:02:02.722Z,98877.58
2017-10-06T13:04:29.048Z,98885.31
2017-10-06T13:06:55.418Z,98881.95
2017-10-06T13:09:21.659Z,98888.98
2017-10-06T13:11:47.900Z,98883.74
2017-10-06T13:14:14.175Z,98885.94
2017-10-06T13:16:40.387Z,98880.33
2017-10-06T13:19:06.634Z,98890.19
2017-10-06T13:21:32.882Z,98888.81
2017-10-06T13:23:59.266Z,98885.81
2017-10-06T13:26:25.808Z,98888.33
2017-10-06T13:28:52.051Z,98885.23
2017-10-06T13:31:18.289Z,98877.34
2017-10-06T13:33:44.627Z,98878.91
2017-10-06T13:36:10.856Z,98872.45
2017-10-06T13:38:37.171Z,98872.36
2017-10-06T13:41:03.392Z,98871.86
2017-10-06T13:43:29.673Z,98871.93
2017-10-06T13:45:55.922Z,98870.05
2017-10-06T13:48:22.185Z,98875.80
2017-10-06T13:50:48.621Z,98881.16
2017-10-06T13:53:14.841Z,98878.77
2017-10-06T13:55:41.085Z,98879.83
2017-10-06T13:58:07.363Z,98884.37
2017-10-06T14:00:33.751Z,98883.37
2017-10-06T14:02:59.999Z,98883.72
2017-10-06T14:05:26.272Z,98889.26
2017-10-06T14:07:52.517Z,98888.45
2017-10-06T14:10:18.784Z,98890.83
2017-10-06T14:12:45.004Z,98891.34
2017-10-06T14:15:11.236Z,98890.13
2017-10-06T14:17:37.492Z,98896.91
2017-10-06T14:20:03.716Z,98897.94
2017-10-06T14:22:30.003Z,98903.69
2017-10-06T14:24:56.243Z,98906.09
2017-10-06T14:27:22.475Z,98913.05
2017-10-06T14:29:48.703Z,98912.42
2017-10-06T14:32:14.933Z,98917.73
2017-10-06T14:34:41.173Z,98920.34
2017-10-06T14:37:07.416Z,98919.53
2017-10-06T14:39:33.643Z,98923.14
2017-10-06T14:41:59.887Z,98925.98
2017-10-06T14:44:26.112Z,98923.48
2017-10-06T14:46:52.357Z,98923.48
2017-10-06T14:49:18.617Z,98929.38
2017-10-06T14:51:44.864Z,98929.73
2017-10-06T14:54:11.123Z,98932.73
2017-10-06T14:56:37.349Z,98938.83
2017-10-06T14:59:03.617Z,98951.13
2017-10-06T15:01:30.042Z,98963.02
2017-10-06T15:03:56.315Z,98976.48
2017-10-06T15:06:22.555Z,98968.80
2017-10-06T15:08:48.799Z,98982.12
2017-10-06T15:11:15.064Z,98980.66
2017-10-06T15:13:41.411Z,98983.07
2017-10-06T15:16:07.655Z,98984.56
2017-10-06T15:18:34.084Z,98990.95
2017-10-06T15:21:00.465Z,98994.45
2017-10-06T15:23:27.161Z,99002.12
2017-10-06T15:25:53.699Z,99002.87
2017-10-06T15:28:20.055Z,99001.17
2017-10-06T15:30:46.458Z,99002.16
2017-10-06T15:33:12.680Z,99002.77
2017-10-06T15:35:39.326Z,99007.67
2017-10-06T15:38:05.956Z,99006.52
2017-10-06T15:40:32.572Z,99008.40
2017-10-06T15:42:59.047Z,99014.77
2017-10-06T15:45:25.658Z,99016.80
2017-10-06T15:47:52.074Z,98998.67
2017-10-06T15:50:18.497Z,99027.13
2017-10-06T15:52:44.939Z,99024.81
2017-10-06T15:55:11.357Z,99029.27
2017-10-06T15:57:37.697Z,99025.44
2017-10-06T16:00:04.076Z,99029.86
2017-10-06T16:02:30.557Z,99038.90
2017-10-06T16:04:57.121Z,99048.13
2017-10-06T16:07:23.540Z,99037.95
2017-10-06T16:09:49.961Z,99054.11
2017-10-06T16:12:16.402Z,99051.57
2017-10-06T16:14:42.843Z,99052.83
2017-10-06T16:17:09.261Z,99062.09
2017-10-06T16:19:35.700Z,99054.37
2017-10-06T16:22:02.120Z,99054.74
2017-10-06T16:24:28.562Z,99062.48
2017-10-06T16:26:55.049Z,99073.75
2017-10-06T16:29:21.476Z,99076.49
2017-10-06T16:31:48.082Z,99080.72
2017-10-06T16:34:14.536Z,99083.20
2017-10-06T16:36:41.171Z,99081.11
2017-10-06T16:39:07.815Z,99088.97
2017-10-06T16:41:34.308Z,99089.11
2017-10-06T16:44:00.746Z,99082.67
2017-10-06T16:46:27.331Z,99078.95
2017-10-06T16:48:53.832Z,99081.55
2017-10-06T16:51:20.348Z,99079.75
2017-10-06T16:53:47.035Z,99078.96
2017-10-06T16:56:13.679Z,99087.71
2017-10-06T16:58:39.892Z,99092.29
2017-10-06T17:01:06.342Z,99096.07
2017-10-06T17:03:32.961Z,99109.30
2017-10-06T17:05:59.616Z,99108.78
2017-10-06T17:08:26.240Z,99109.44
2017-10-06T17:10:52.483Z,99113.95
2017-10-06T17:13:18.979Z,99108.56
2017-10-06T17:15:45.496Z,99109.31
2017-10-06T17:18:12.147Z,99115.00
2017-10-06T17:20:38.584Z,99121.42
2017-10-06T17:23:04.925Z,99125.61
2017-10-06T17:25:31.340Z,99123.55
2017-10-06T17:27:57.901Z,99123.44
2017-10-06T17:30:24.348Z,99126.45
2017-10-06T17:32:50.640Z,99128.47
2017-10-06T17:35:17.219Z,99134.71
2017-10-06T17:37:43.864Z,99131.66
2017-10-06T17:40:10.294Z,99137.69
2017-10-06T17:42:36.783Z,99137.61
2017-10-06T17:45:03.228Z,99129.73
2017-10-06T17:47:29.474Z,99135.20
2017-10-06T17:49:55.811Z,99137.83
2017-10-06T17:52:22.018Z,99132.04
2017-10-06T17:54:48.497Z,99143.12
2017-10-06T17:57:15.106Z,99134.20
2017-10-06T17:59:41.557Z,99141.25
2017-10-06T18:02:07.944Z,99135.67
2017-10-06T18:04:34.210Z,99141.20
2017-10-06T18:07:00.831Z,99135.70
2017-10-06T18:09:27.083Z,99138.39
2017-10-06T18:11:53.319Z,99135.64
2017-10-06T18:14:19.742Z,99143.06
2017-10-06T18:16:46.173Z,99143.94
2017-10-06T18:19:12.467Z,99150.06
2017-10-06T18:21:38.843Z,99156.73
2017-10-06T18:24:05.043Z,99162.43
2017-10-06T18:26:31.707Z,99165.31
2017-10-06T18:28:57.930Z,99167.48
2017-10-06T18:31:24.125Z,99170.22
2017-10-06T18:33:50.599Z,99176.44
2017-10-06T18:36:16.833Z,99179.45
2017-10-06T18:38:43.054Z,99185.04
2017-10-06T18:41:09.415Z,99193.55
2017-10-06T18:43:35.713Z,99191.53
2017-10-06T18:46:02.331Z,99199.78
2017-10-06T18:48:28.555Z,99202.36
2017-10-06T18:50:54.817Z,99206.13
2017-10-06T18:53:21.303Z,99207.73
2017-10-06T18:55:47.871Z,99205.55
2017-10-06T18:58:14.125Z,99213.16
2017-10-06T19:00:40.357Z,99216.02
2017-10-06T19:03:06.553Z,99217.91
2017-10-06T19:05:32.826Z,99223.19
2017-10-06T19:07:59.045Z,99227.81
2017-10-06T19:10:25.254Z,99231.19
2017-10-06T19:12:51.460Z,99234.67
2017-10-06T19:15:17.688Z,99243.38
2017-10-06T19:17:43.947Z,99245.53
2017-10-06T19:20:10.156Z,99253.53
2017-10-06T19:22:36.382Z,99251.80
2017-10-06T19:25:02.650Z,99254.93
2017-10-06T19:27:28.857Z,99264.28
2017-10-06T19:29:55.068Z,99260.86
2017-10-06T19:32:21.285Z,99266.97
2017-10-06T19:34:47.514Z,99283.91
2017-10-06T19:37:13.721Z,99291.06
2017-10-06T19:39:39.957Z,99290.79
2017-10-06T19:42:06.228Z,99293.11
2017-10-06T19:44:32.454Z,99299.87
2017-10-06T19:46:58.672Z,99307.87
2017-10-06T19:49:24.998Z,99310.18
2017-10-06T19:51:51.229Z,99309.36
2017-10-06T19:54:17.489Z,99312.19
2017-10-06T19:56:43.724Z,99315.27
2017-10-06T19:59:09.913Z,99315.68
2017-10-06T20:01:36.130Z,99318.41
2017-10-06T20:04:02.350Z,99326.25
2017-10-06T20:06:28.540Z,99331.66
2017-10-06T20:08:54.740Z,99333.16
2017-10-06T20:11:20.952Z,99336.64
2017-10-06T20:13:47.165Z,99339.77
2017-10-06T20:16:13.368Z,99339.07
2017-10-06T20:18:39.589Z,99343.24
2017-10-06T20:21:05.812Z,99348.00
2017-10-06T20:23:32.035Z,99355.10
2017-10-06T20:25:58.288Z,99353.32
2017-10-06T20:28:24.497Z,99359.78
2017-10-06T20:30:50.692Z,99367.19
2017-10-06T20:33:16.917Z,99365.00
2017-10-06T20:35:43.155Z,99369.70
2017-10-06T20:38:09.365Z,99380.04
2017-10-06T20:40:35.630Z,99383.83
2017-10-06T20:43:01.859Z,99382.17
2017-10-06T20:45:28.090Z,99383.37
2017-10-06T20:47:54.311Z,99393.48
2017-10-06T20:50:20.612Z,99386.17
2017-10-06T20:52:46.823Z,99392.58
2017-10-06T20:55:13.024Z,99391.49
2017-10-06T20:57:39.242Z,99386.14
2017-10-06T21:00:05.457Z,99396.63
2017-10-06T21:02:31.692Z,99397.16
2017-10-06T21:04:57.899Z,99397.92
2017-10-06T21:07:24.101Z,99398.29
2017-10-06T21:09:50.428Z,99398.52
2017-10-06T21:12:16.643Z,99401.27
2017-10-06T21:14:42.890Z,99406.31
2017-10-06T21:17:09.131Z,99390.53
2017-10-06T21:19:35.362Z,99404.67
2017-10-06T21:22:01.581Z,99411.48
2017-10-06T21:24:27.795Z,99414.92
2017-10-06T21:26:54.047Z,99412.41
2017-10-06T21:29:20.253Z,99422.00
2017-10-06T21:31:46.454Z,99420.59
2017-10-06T21:34:12.689Z,99429.65
2017-10-06T21:36:38.887Z,99430.78
2017-10-06T21:39:05.134Z,99431.22
2017-10-06T21:41:31.333Z,99442.35
2017-10-06T21:43:57.565Z,99436.20
2017-10-06T21:46:23.789Z,99431.54
2017-10-06T21:48:49.983Z,99436.59
2017-10-06T21:51:16.319Z,99432.22
2017-10-06T21:53:42.544Z,99428.70
2017-10-06T21:56:08.766Z,99434.66
2017-10-06T21:58:34.978Z,99444.08
2017-10-06T22:01:01.196Z,99447.58
2017-10-06T22:03:27.444Z,99449.61
2017-10-06T22:05:53.680Z,99449.83
2017-10-06T22:08:19.878Z,99453.38
2017-10-06T22:10:46.104Z,99454.59
2017-10-06T22:13:12.371Z,99458.41
2017-10-06T22:15:38.594Z,99452.02
2017-10-06T22:18:04.818Z,99450.88
2017-10-06T22:20:31.035Z,99442.84
2017-10-06T22:22:57.273Z,99449.23
2017-10-06T22:25:23.479Z,99453.47
2017-10-06T22:27:49.728Z,99452.23
2017-10-06T22:30:15.944Z,99462.62
2017-10-06T22:32:42.285Z,99456.56
2017-10-06T22:35:08.631Z,99450.55
2017-10-06T22:37:34.875Z,99458.77
2017-10-06T22:40:01.158Z,99456.64
2017-10-06T22:42:27.379Z,99461.98
2017-10-06T22:44:53.585Z,99461.31
2017-10-06T22:47:19.815Z,99461.00
2017-10-06T22:49:46.035Z,99458.45
2017-10-06T22:52:12.287Z,99466.30
2017-10-06T22:54:38.528Z,99468.42
2017-10-06T22:57:04.754Z,99472.05
2017-10-06T22:59:30.977Z,99475.75
2017-10-06T23:01:57.213Z,99481.76
2017-10-06T23:04:23.474Z,99479.84
2017-10-06T23:06:49.706Z,99475.14
2017-10-06T23:09:15.914Z,99478.03
2017-10-06T23:11:42.130Z,99485.53
2017-10-06T23:14:08.366Z,99490.54
2017-10-06T23:16:34.615Z,99482.34
2017-10-06T23:19:00.825Z,99483.53
2017-10-06T23:21:27.061Z,99479.70
2017-10-06T23:23:53.285Z,99483.22
2017-10-06T23:26:19.517Z,99477.64
2017-10-06T23:28:45.932Z,99480.56
2017-10-06T23:31:12.161Z,99478.23
2017-10-06T23:33:38.378Z,99473.06
2017-10-06T23:36:04.597Z,99468.97
2017-10-06T23:38:30.823Z,99466.22
2017-10-06T23:40:57.046Z,99471.32
2017-10-06T23:43:23.476Z,99466.15
2017-10-06T23:45:49.711Z,99463.03
2017-10-06T23:48:16.127Z,99458.14
2017-10-06T23:50:42.576Z,99457.37
2017-10-06T23:53:08.837Z,99449.39
2017-10-06T23:55:35.048Z,99456.98
2017-10-06T23:58:01.287Z,99451.79
